Time;durP1;ratioP1;P1;durP2;ratioP2;P2;SDS_P1;SDS_P2;PMS_P1;PMS_P2;Temp;Humidity;BMP_temperature;BMP_pressure;BME280_temperature;BME280_humidity;BME280_pressure;Samples;Min_cycle;Max_cycle;Signal;HPM_P1;HPM_P2
2022/06/14 00:00:55;;;;;;;9.68;6.35;;;;;;;20.87;72.79;99483.41;5073827;28;20032;-84
2022/06/14 00:03:28;;;;;;;6.18;4.95;;;;;;;20.84;73.32;99496.13;5070781;28;20039;-84
2022/06/14 00:05:55;;;;;;;8.27;4.18;;;;;;;20.57;74.26;99478.03;5072848;28;20024;-84
2022/06/14 00:08:25;;;;;;;8.38;5.18;;;;;;;20.64;74.12;99486.59;5072744;28;20470;-84
2022/06/14 00:10:52;;;;;;;9.85;6.55;;;;;;;20.48;74.77;99487.50;5072570;28;20090;-83
2022/06/14 00:13:18;;;;;;;8.02;4.55;;;;;;;20.50;75.66;99495.44;5073199;28;20123;-83
2022/06/14 00:15:45;;;;;;;7.85;4.40;;;;;;;20.60;75.14;99487.72;5072325;28;20116;-83
2022/06/14 00:18:13;;;;;;;6.07;4.57;;;;;;;20.47;75.75;99484.91;5073662;28;20024;-83
2022/06/14 00:20:39;;;;;;;6.80;4.95;;;;;;;20.27;75.75;99451.28;5072274;28;20450;-83
2022/06/14 00:23:05;;;;;;;7.10;4.05;;;;;;;20.46;75.33;99481.34;5072872;28;20062;-84
2022/06/14 00:25:37;;;;;;;8.02;4.93;;;;;;;20.30;75.76;99493.94;5072826;28;20472;-83
2022/06/14 00:28:04;;;;;;;8.48;4.38;;;;;;;20.16;75.98;99487.56;5073574;28;20434;-83
2022/06/14 00:30:30;;;;;;;6.60;4.70;;;;;;;20.21;75.92;99479.25;5072681;28;20127;-83
2022/06/14 00:32:56;;;;;;;9.05;4.70;;;;;;;20.35;75.60;99487.34;5073142;28;20041;-84
2022/06/14 00:35:22;;;;;;;7.28;5.10;;;;;;;20.29;75.05;99460.06;5072560;28;20085;-85
2022/06/14 00:37:48;;;;;;;9.93;4.82;;;;;;;20.36;75.25;99474.84;5072903;28;20051;-83
2022/06/14 00:40:28;;;;;;;10.65;5.53;;;;;;;20.36;76.16;99502.47;5072880;28;20138;-84
2022/06/14 00:42:54;;;;;;;8.43;5.50;;;;;;;20.31;76.01;99503.69;5071996;28;20052;-83
2022/06/14 00:45:22;;;;;;;8.63;6.38;;;;;;;20.35;76.03;99502.56;5072308;28;20074;-83
2022/06/14 00:47:50;;;;;;;9.15;5.75;;;;;;;20.28;76.31;99490.47;5072884;28;20056;-83
2022/06/14 00:50:22;;;;;;;10.63;4.80;;;;;;;20.44;75.78;99493.97;5072519;28;20101;-83
2022/06/14 00:52:56;;;;;;;9.45;5.55;;;;;;;20.39;75.75;99483.53;5072785;28;20032;-83
2022/06/14 00:55:41;;;;;;;9.93;6.10;;;;;;;20.47;75.32;99504.50;5072676;28;20033;-83
2022/06/14 00:58:21;;;;;;;9.70;5.65;;;;;;;20.15;75.45;99467.06;5072709;28;20032;-83
2022/06/14 01:00:54;;;;;;;8.50;5.82;;;;;;;20.41;75.86;99518.28;5072306;28;20037;-83
2022/06/14 01:03:23;;;;;;;8.43;5.45;;;;;;;20.30;76.04;99516.22;5072886;28;20029;-84
2022/06/14 01:06:06;;;;;;;11.63;5.63;;;;;;;20.29;76.21;99502.91;5072409;28;20048;-83
2022/06/14 01:08:39;;;;;;;6.97;5.10;;;;;;;20.27;76.44;99505.69;5071924;28;20028;-83
2022/06/14 01:11:09;;;;;;;13.98;4.03;;;;;;;20.25;76.14;99493.31;5071834;28;20043;-83
2022/06/14 01:13:36;;;;;;;9.85;4.53;;;;;;;20.41;75.96;99514.75;5072161;28;20124;-83
2022/06/14 01:16:02;;;;;;;7.95;5.68;;;;;;;20.15;76.60;99487.66;5072374;28;20025;-83
2022/06/14 01:18:28;;;;;;;9.32;4.70;;;;;;;19.99;77.06;99460.91;5072343;28;20035;-83
2022/06/14 01:20:54;;;;;;;8.63;4.63;;;;;;;20.10;76.64;99469.16;5071166;28;20029;-83
2022/06/14 01:23:20;;;;;;;7.47;4.70;;;;;;;20.09;76.48;99480.81;5071862;28;20097;-84
2022/06/14 01:25:48;;;;;;;9.07;4.75;;;;;;;20.15;77.32;99506.41;5071974;28;20109;-83
2022/06/14 01:28:17;;;;;;;6.90;4.60;;;;;;;20.16;76.29;99500.94;5070829;28;20033;-85
2022/06/14 01:30:46;;;;;;;6.68;4.00;;;;;;;19.70;78.20;99494.66;5052018;28;20045;-83
2022/06/14 01:33:14;;;;;;;8.35;4.15;;;;;;;19.69;78.13;99480.38;5051643;28;20037;-84
2022/06/14 01:35:44;;;;;;;6.60;3.63;;;;;;;19.65;77.66;99468.16;5051659;28;20025;-83
2022/06/14 01:38:13;;;;;;;5.55;3.33;;;;;;;19.84;77.97;99497.44;5051818;28;20144;-84
2022/06/14 01:41:00;;;;;;;7.78;4.57;;;;;;;19.80;78.08;99502.09;5071351;28;20418;-84
2022/06/14 01:43:55;;;;;;;6.68;4.03;;;;;;;19.69;78.72;99493.75;5072004;28;20033;-84
2022/06/14 01:46:26;;;;;;;5.75;3.30;;;;;;;19.56;78.72;99474.00;5071651;28;20035;-84
2022/06/14 01:52:11;;;;;;;8.18;4.88;;;;;;;19.66;78.82;99478.75;5071280;28;20109;-84
2022/06/14 01:54:52;;;;;;;6.97;4.18;;;;;;;19.75;78.08;99477.38;5070841;28;20047;-84
2022/06/14 01:57:39;;;;;;;7.47;3.35;;;;;;;19.70;78.93;99467.88;5072068;28;20032;-84
2022/06/14 02:00:17;;;;;;;7.60;4.32;;;;;;;19.93;78.31;99506.75;5071382;28;20039;-84
2022/06/14 02:02:42;;;;;;;5.63;3.63;;;;;;;19.95;78.53;99518.25;5070373;28;20036;-84
2022/06/14 02:05:21;;;;;;;6.30;3.97;;;;;;;19.35;81.33;99494.78;5071254;28;20510;-83
2022/06/14 02:08:00;;;;;;;5.45;3.15;;;;;;;19.13;83.71;99493.25;5070945;28;20116;-84
2022/06/14 02:10:40;;;;;;;5.05;3.33;;;;;;;19.23;85.62;99520.34;5070632;28;20024;-84
2022/06/14 02:13:20;;;;;;;4.75;4.15;;;;;;;19.23;85.36;99490.94;5070646;28;20494;-84
2022/06/14 02:16:03;;;;;;;5.75;3.72;;;;;;;19.36;84.65;99500.03;5051113;28;20040;-83
2022/06/14 02:18:47;;;;;;;6.32;4.32;;;;;;;19.61;83.86;99520.09;5056318;28;20028;-83
2022/06/14 02:21:25;;;;;;;7.80;5.35;;;;;;;19.70;83.01;99534.78;5069431;28;20039;-83
2022/06/14 02:24:09;;;;;;;6.35;3.53;;;;;;;19.75;82.53;99525.53;5070845;28;20085;-84
2022/06/14 02:26:45;;;;;;;8.77;3.72;;;;;;;19.76;82.24;99532.63;5069936;28;20119;-83
2022/06/14 02:29:19;;;;;;;5.28;3.40;;;;;;;19.74;81.78;99529.19;5060865;28;20588;-82
2022/06/14 02:31:48;;;;;;;6.57;5.00;;;;;;;19.65;81.62;99508.28;5068183;28;20079;-83
2022/06/14 02:34:25;;;;;;;6.20;4.00;;;;;;;19.35;81.74;99502.78;5050880;28;20056;-83
2022/06/14 02:36:56;;;;;;;4.70;3.65;;;;;;;19.19;82.50;99498.28;5048782;28;20091;-83
2022/06/14 02:39:34;;;;;;;5.32;3.00;;;;;;;19.28;82.79;99521.00;5064089;28;20032;-83
2022/06/14 02:42:08;;;;;;;6.63;3.70;;;;;;;19.14;82.96;99505.69;5069791;28;20043;-83
2022/06/14 02:45:09;;;;;;;5.00;2.70;;;;;;;19.14;83.51;99527.94;5070651;28;20055;-83
2022/06/14 02:47:44;;;;;;;5.55;4.10;;;;;;;19.08;83.66;99514.03;5048977;28;20041;-83
2022/06/14 02:50:18;;;;;;;6.15;4.03;;;;;;;19.16;82.36;99508.28;5061792;28;20545;-82
2022/06/14 02:52:59;;;;;;;5.10;3.53;;;;;;;18.89;83.27;99515.00;5067794;28;20040;-85
2022/06/14 02:55:38;;;;;;;4.78;3.33;;;;;;;19.21;82.19;99520.44;5069916;28;20192;-84
2022/06/14 02:58:52;;;;;;;7.30;4.65;;;;;;;19.44;80.73;99529.88;5070659;28;20044;-83
2022/06/14 03:01:25;;;;;;;5.67;4.30;;;;;;;19.43;80.39;99527.31;5038648;28;20420;-81
2022/06/14 03:03:53;;;;;;;10.45;4.75;;;;;;;19.51;79.79;99514.41;5069533;28;20278;-84
2022/06/14 03:06:37;;;;;;;5.47;4.28;;;;;;;19.52;78.85;99492.03;5072210;28;20031;-84
2022/06/14 03:09:09;;;;;;;5.60;3.50;;;;;;;19.58;78.82;99501.53;5074737;28;20028;-86
2022/06/14 03:11:58;;;;;;;4.30;3.30;;;;;;;19.40;79.95;99520.31;5074266;28;20035;-85
2022/06/14 03:14:48;;;;;;;7.63;4.65;;;;;;;19.13;81.51;99507.47;5056237;28;20040;-85
2022/06/14 03:17:32;;;;;;;6.15;3.78;;;;;;;19.39;80.93;99513.25;5074298;28;20093;-85
2022/06/14 03:20:15;;;;;;;5.90;3.78;;;;;;;19.49;80.60;99500.22;5073941;28;20036;-84
2022/06/14 03:22:53;;;;;;;5.40;3.67;;;;;;;19.22;81.48;99499.94;5074288;28;20036;-86
2022/06/14 03:25:34;;;;;;;6.45;3.85;;;;;;;19.43;81.50;99514.81;5073835;28;20033;-84
2022/06/14 03:28:21;;;;;;;6.13;3.85;;;;;;;19.45;81.31;99512.06;5055993;28;20101;-85
2022/06/14 03:30:59;;;;;;;6.78;4.68;;;;;;;19.50;80.52;99494.78;5073847;28;20426;-84
2022/06/14 03:33:48;;;;;;;7.32;5.13;;;;;;;19.73;80.18;99516.72;5070836;28;20032;-86
2022/06/14 03:36:14;;;;;;;5.95;3.45;;;;;;;19.78;80.40;99506.66;5054305;28;20037;-85
2022/06/14 03:38:53;;;;;;;6.72;4.53;;;;;;;19.98;79.61;99508.22;5065625;28;20036;-83
2022/06/14 03:41:24;;;;;;;7.25;5.15;;;;;;;20.13;79.43;99522.53;5073798;28;20058;-83
2022/06/14 03:43:52;;;;;;;6.47;4.72;;;;;;;20.32;78.93;99522.34;5073817;28;20024;-83
2022/06/14 03:46:20;;;;;;;6.78;4.78;;;;;;;20.31;79.04;99520.63;5074501;28;20036;-82
2022/06/14 03:48:50;;;;;;;4.93;3.83;;;;;;;20.17;78.47;99491.97;5073913;28;20044;-83
2022/06/14 03:51:31;;;;;;;8.18;4.40;;;;;;;20.31;78.69;99498.31;5073631;28;20032;-83
2022/06/14 03:54:23;;;;;;;6.43;4.70;;;;;;;20.56;77.58;99503.97;5069894;28;20112;-83
2022/06/14 03:56:54;;;;;;;8.77;5.45;;;;;;;20.47;77.49;99496.47;5070955;28;20035;-82
2022/06/14 03:59:20;;;;;;;6.25;3.83;;;;;;;20.87;nan;99517.41;5070136;28;20403;-83
2022/06/14 04:01:58;;;;;;;8.15;4.55;;;;;;;20.93;76.50;99491.06;5073599;28;20051;-82
2022/06/14 04:05:05;;;;;;;7.90;5.30;;;;;;;21.03;74.82;99488.66;5073848;28;20029;-83
2022/06/14 04:07:47;;;;;;;7.82;4.72;;;;;;;21.23;73.86;99510.72;5039208;28;20131;-82
2022/06/14 04:10:17;;;;;;;7.38;4.65;;;;;;;21.24;73.39;99505.25;5054253;28;20060;-82
2022/06/14 04:13:02;;;;;;;6.65;3.78;;;;;;;21.40;73.40;99520.41;5072677;28;20071;-81
2022/06/14 04:15:37;;;;;;;8.40;5.03;;;;;;;21.45;73.93;99523.66;5055311;28;20036;-82
2022/06/14 04:18:02;;;;;;;7.70;4.60;;;;;;;21.52;73.79;99529.50;5070457;28;20464;-81
2022/06/14 04:20:34;;;;;;;5.70;4.25;;;;;;;21.50;73.60;99508.13;5071324;28;20033;-82
2022/06/14 04:23:15;;;;;;;8.48;5.20;;;;;;;21.43;72.09;99506.78;5053272;28;20112;-82
2022/06/14 04:25:57;;;;;;;6.53;3.50;;;;;;;21.49;72.46;99537.72;5072987;28;20039;-81
2022/06/14 04:28:29;;;;;;;5.68;3.35;;;;;;;21.80;71.44;99534.84;5072382;28;20026;-81
2022/06/14 04:31:07;;;;;;;9.18;3.70;;;;;;;22.00;70.58;99538.94;5071331;28;20044;-82
2022/06/14 04:33:42;;;;;;;6.57;4.40;;;;;;;22.00;69.44;99512.09;5049763;28;20428;-81
2022/06/14 04:36:16;;;;;;;5.90;4.20;;;;;;;22.11;68.97;99510.53;5052322;28;20499;-81
2022/06/14 04:38:48;;;;;;;6.25;3.53;;;;;;;22.55;67.62;99535.44;5057560;28;20094;-80
2022/06/14 04:41:52;;;;;;;6.15;4.72;;;;;;;22.58;68.11;99533.38;5069869;28;20024;-80
2022/06/14 04:44:27;;;;;;;8.32;4.22;;;;;;;22.51;68.87;99519.50;5053498;28;20498;-80
2022/06/14 04:46:53;;;;;;;;;;;;;;;22.63;69.52;99536.66;5070821;28;20040;-81
2022/06/14 04:49:37;;;;;;;17.33;6.47;;;;;;;22.67;70.18;99539.97;5069678;28;19916;-81
2022/06/14 04:52:12;;;;;;;8.10;5.25;;;;;;;22.94;69.49;99533.66;5052813;28;20486;-81
2022/06/14 04:54:48;;;;;;;10.45;5.03;;;;;;;23.03;67.42;99516.91;5063417;28;20051;-81
2022/06/14 04:57:24;;;;;;;7.65;4.40;;;;;;;23.28;66.60;99542.13;5068553;28;20032;-81
2022/06/14 04:59:59;;;;;;;6.38;4.40;;;;;;;23.41;65.17;99543.84;5068380;28;20508;-81
2022/06/14 05:02:29;;;;;;;;;;;;;;;23.67;64.32;99543.81;5068324;28;20916;-80
2022/06/14 05:05:00;;;;;;;8.68;4.63;;;;;;;23.76;63.74;99545.84;5069006;28;19966;-82
2022/06/14 05:07:41;;;;;;;11.45;5.18;;;;;;;23.83;63.13;99531.94;5067312;28;20047;-81
2022/06/14 05:10:16;;;;;;;7.03;4.22;;;;;;;23.97;63.04;99541.72;5067129;28;20044;-81
2022/06/14 05:12:56;;;;;;;7.90;5.68;;;;;;;24.10;63.15;99556.88;5067468;28;20036;-81
2022/06/14 05:15:27;;;;;;;8.85;4.95;;;;;;;23.90;64.79;99561.03;5068417;28;20039;-80
2022/06/14 05:18:04;;;;;;;12.55;6.55;;;;;;;24.04;64.56;99534.94;5068223;28;20061;-81
2022/06/14 05:20:38;;;;;;;9.07;6.65;;;;;;;24.06;64.41;99541.91;5067463;28;20185;-80
2022/06/14 05:23:10;;;;;;;11.02;6.88;;;;;;;24.32;64.55;99541.81;5068319;28;20024;-80
2022/06/14 05:25:51;;;;;;;7.95;4.88;;;;;;;24.31;64.94;99532.88;5067779;28;20040;-81
2022/06/14 05:28:29;;;;;;;7.50;5.63;;;;;;;24.51;62.31;99552.06;5067161;28;20032;-81
2022/06/14 05:31:09;;;;;;;8.48;5.70;;;;;;;24.58;65.75;99552.53;5067878;28;20052;-81
2022/06/14 05:33:53;;;;;;;8.18;4.65;;;;;;;24.72;64.54;99554.16;5067266;28;20038;-80
2022/06/14 05:36:35;;;;;;;7.20;4.87;;;;;;;24.93;62.76;99554.34;5067508;28;20028;-81
2022/06/14 05:39:12;;;;;;;7.78;5.55;;;;;;;25.32;62.19;99563.06;5067907;28;20275;-81
2022/06/14 05:41:37;;;;;;;8.40;5.63;;;;;;;25.50;61.83;99574.22;5064278;28;20036;-81
2022/06/14 05:44:16;;;;;;;7.43;4.10;;;;;;;25.51;61.90;99557.06;5049397;28;20403;-82
2022/06/14 05:46:50;;;;;;;6.47;3.78;;;;;;;25.67;58.97;99554.88;5068217;28;20043;-81
2022/06/14 05:49:21;;;;;;;8.23;4.25;;;;;;;25.65;61.22;99556.81;5067294;28;20029;-81
2022/06/14 05:51:56;;;;;;;5.28;3.40;;;;;;;25.71;60.29;99532.00;5066795;28;20028;-81
2022/06/14 05:54:46;;;;;;;8.05;3.53;;;;;;;26.29;57.83;99566.09;5068027;28;20032;-81
2022/06/14 05:57:26;;;;;;;4.78;3.60;;;;;;;26.32;56.75;99555.03;5067323;28;20040;-80
2022/06/14 05:59:51;;;;;;;4.93;2.72;;;;;;;26.38;56.13;99545.53;5067822;28;20062;-81
2022/06/14 06:02:21;;;;;;;4.28;2.83;;;;;;;26.50;54.23;99562.59;5066993;28;20062;-81
2022/06/14 06:04:57;;;;;;;6.22;3.28;;;;;;;26.48;53.61;99567.25;5067073;28;20070;-81
2022/06/14 06:07:28;;;;;;;3.10;1.88;;;;;;;26.38;53.34;99572.56;5066837;28;20572;-80
2022/06/14 06:10:06;;;;;;;3.10;2.58;;;;;;;26.40;53.85;99548.97;5066929;28;20036;-80
2022/06/14 06:12:43;;;;;;;5.65;3.20;;;;;;;26.59;52.65;99556.41;5067109;28;20178;-82
2022/06/14 06:15:18;;;;;;;4.03;2.80;;;;;;;26.69;53.44;99567.34;5067009;28;20037;-81
2022/06/14 06:17:49;;;;;;;4.47;2.72;;;;;;;26.57;54.07;99539.44;5047580;28;20063;-81
2022/06/14 06:20:29;;;;;;;4.10;2.75;;;;;;;26.82;52.04;99561.75;5063560;28;20032;-80
2022/06/14 06:23:00;;;;;;;3.17;2.13;;;;;;;26.74;52.77;99574.09;5067047;28;20032;-81
2022/06/14 06:25:31;;;;;;;7.47;3.25;;;;;;;26.80;53.42;99560.03;5066664;28;20024;-81
2022/06/14 06:28:02;;;;;;;8.27;4.00;;;;;;;27.20;51.57;99566.56;5065884;28;20036;-80
2022/06/14 06:30:31;;;;;;;5.57;3.65;;;;;;;27.49;52.07;99561.34;5067049;28;20052;-81
2022/06/14 06:32:57;;;;;;;7.13;3.13;;;;;;;27.33;50.95;99572.69;5067189;28;20036;-80
2022/06/14 06:35:34;;;;;;;4.60;2.50;;;;;;;27.59;50.66;99566.84;5066874;28;20107;-81
2022/06/14 06:38:22;;;;;;;6.13;3.90;;;;;;;27.62;52.23;99546.72;5048343;28;20498;-80
2022/06/14 06:43:43;;;;;;;3.45;2.58;;;;;;;28.27;51.39;99541.81;5066808;28;20035;-80
2022/06/14 06:46:13;;;;;;;3.50;2.72;;;;;;;28.42;46.78;99542.25;5067045;28;20033;-80
2022/06/14 06:48:42;;;;;;;4.55;2.50;;;;;;;28.68;48.26;99558.84;5049352;28;20025;-80
2022/06/14 06:51:13;;;;;;;4.50;2.63;;;;;;;28.19;48.42;99526.25;5066605;28;20546;-80
2022/06/14 06:53:47;;;;;;;4.00;2.47;;;;;;;28.14;48.94;99563.75;5066870;28;20032;-81
2022/06/14 06:56:22;;;;;;;3.90;2.47;;;;;;;28.00;47.90;99565.00;5066778;28;20463;-80
2022/06/14 06:58:59;;;;;;;5.60;2.85;;;;;;;27.74;49.47;99531.22;5049057;28;20739;-80
2022/06/14 07:01:31;;;;;;;3.88;2.28;;;;;;;28.32;50.47;99546.81;5066744;28;20516;-81
2022/06/14 07:04:06;;;;;;;3.63;1.88;;;;;;;28.69;47.86;99566.00;5066490;28;20036;-79
2022/06/14 07:06:40;;;;;;;4.88;2.97;;;;;;;28.49;47.18;99556.97;5066855;28;20067;-80
2022/06/14 07:09:17;;;;;;;3.00;2.28;;;;;;;28.51;47.12;99573.09;5066934;28;20067;-80
2022/06/14 07:11:49;;;;;;;3.78;2.58;;;;;;;28.27;48.81;99543.66;5066550;28;20038;-82
2022/06/14 07:14:23;;;;;;;3.83;2.72;;;;;;;28.65;48.39;99571.84;5066760;28;20055;-80
2022/06/14 07:17:09;;;;;;;4.70;1.80;;;;;;;28.69;47.89;99554.31;5067108;28;20123;-81
2022/06/14 07:19:52;;;;;;;3.28;2.13;;;;;;;28.91;47.59;99542.28;5066771;28;20066;-80
2022/06/14 07:22:27;;;;;;;4.32;2.63;;;;;;;28.81;47.43;99555.88;5066482;28;20036;-81
2022/06/14 07:24:56;;;;;;;2.97;2.13;;;;;;;29.18;48.27;99549.69;5066574;28;20116;-80
2022/06/14 07:27:26;;;;;;;4.95;2.55;;;;;;;29.04;47.54;99542.84;5066263;28;20086;-81
2022/06/14 07:29:59;;;;;;;4.28;2.33;;;;;;;29.29;46.43;99573.97;5065487;28;20067;-81
2022/06/14 07:32:29;;;;;;;2.75;1.70;;;;;;;29.31;47.59;99557.53;5066139;28;20418;-82
2022/06/14 07:34:56;;;;;;;3.72;2.45;;;;;;;28.97;46.95;99546.28;5066031;28;20036;-81
2022/06/14 07:37:30;;;;;;;2.83;1.95;;;;;;;29.24;46.72;99578.13;5064784;28;20453;-82
2022/06/14 07:40:15;;;;;;;3.13;2.47;;;;;;;29.28;45.89;99576.84;5066454;28;20107;-82
2022/06/14 07:42:59;;;;;;;2.45;1.58;;;;;;;29.54;46.58;99579.78;5066695;28;20051;-82
2022/06/14 07:45:28;;;;;;;;;;;;;;;29.95;45.48;99571.31;5066649;28;20028;-82
2022/06/14 07:48:02;;;;;;;7.75;3.42;;;;;;;29.62;45.25;99555.41;5065310;28;20369;-83
2022/06/14 07:50:38;;;;;;;3.05;2.30;;;;;;;29.73;43.92;99570.69;5066059;28;20039;-81
2022/06/14 07:53:25;;;;;;;3.58;2.28;;;;;;;29.57;48.02;99576.75;5068885;28;20071;-83
2022/06/14 07:55:56;;;;;;;3.38;2.47;;;;;;;29.65;47.04;99567.84;5068988;28;20047;-82
2022/06/14 07:58:31;;;;;;;2.95;1.80;;;;;;;30.10;44.77;99561.66;5070090;28;20142;-81
2022/06/14 08:01:10;;;;;;;4.82;2.63;;;;;;;30.00;44.85;99548.13;5069639;28;20070;-81
2022/06/14 08:03:49;;;;;;;4.13;2.67;;;;;;;30.07;45.67;99537.47;5069564;28;20036;-83
2022/06/14 08:06:20;;;;;;;5.63;2.35;;;;;;;30.39;44.18;99563.38;5069854;28;20032;-84
2022/06/14 08:08:54;;;;;;;3.05;1.95;;;;;;;30.25;43.78;99550.28;5069733;28;20040;-83
2022/06/14 08:11:40;;;;;;;3.53;2.22;;;;;;;29.95;44.96;99546.84;5069442;28;20029;-83
2022/06/14 08:14:17;;;;;;;2.67;1.83;;;;;;;30.35;43.86;99545.59;5069536;28;20154;-83
2022/06/14 08:16:44;;;;;;;4.88;3.10;;;;;;;30.54;45.73;99536.50;5070086;28;20585;-83
2022/06/14 08:19:15;;;;;;;3.08;2.13;;;;;;;30.51;41.40;99551.25;5069774;28;20036;-82
2022/06/14 08:21:50;;;;;;;22.13;3.40;;;;;;;30.59;44.69;99547.75;5069352;28;20035;-82
2022/06/14 08:24:23;;;;;;;16.95;2.25;;;;;;;30.75;43.56;99555.19;5069446;28;20047;-82
2022/06/14 08:27:23;;;;;;;3.10;1.75;;;;;;;30.80;42.95;99552.00;5069401;28;20765;-82
2022/06/14 08:29:58;;;;;;;3.22;2.35;;;;;;;30.97;43.00;99536.66;5069143;28;20529;-83
2022/06/14 08:32:55;;;;;;;3.60;1.83;;;;;;;30.80;42.74;99550.16;5069475;28;20032;-82
2022/06/14 08:35:28;;;;;;;7.97;2.85;;;;;;;30.59;43.06;99525.97;5060464;28;20047;-82
2022/06/14 08:38:08;;;;;;;2.75;1.67;;;;;;;30.70;42.03;99539.34;5069252;28;20032;-82
2022/06/14 08:40:33;;;;;;;3.45;2.13;;;;;;;30.80;41.88;99549.28;5068990;28;20125;-81
2022/06/14 08:43:08;;;;;;;3.38;2.28;;;;;;;30.79;42.27;99551.16;5051178;28;20129;-82
2022/06/14 08:45:45;;;;;;;4.00;2.72;;;;;;;31.44;41.71;99539.06;5068801;28;20131;-82
2022/06/14 08:48:40;;;;;;;3.75;2.42;;;;;;;31.20;42.49;99543.34;5068965;28;20085;-82
2022/06/14 08:51:12;;;;;;;4.00;2.72;;;;;;;31.03;42.49;99552.41;5068614;28;20024;-81
2022/06/14 08:54:13;;;;;;;5.38;2.55;;;;;;;31.05;38.88;99556.69;5050513;28;20453;-81
2022/06/14 08:57:01;;;;;;;3.38;2.10;;;;;;;30.99;38.76;99543.69;5067847;28;20115;-82
2022/06/14 08:59:56;;;;;;;4.45;3.10;;;;;;;30.98;42.02;99530.25;5068167;28;20506;-81
2022/06/14 09:02:43;;;;;;;3.28;1.70;;;;;;;31.14;38.35;99541.25;5068789;28;20123;-81
2022/06/14 09:05:33;;;;;;;3.47;2.20;;;;;;;31.25;38.79;99534.69;5067619;28;20048;-82
2022/06/14 09:08:13;;;;;;;3.03;1.95;;;;;;;31.63;40.45;99545.31;5067501;28;20477;-82
2022/06/14 09:11:27;;;;;;;3.55;2.35;;;;;;;31.57;36.77;99530.47;5068352;28;20039;-82
2022/06/14 09:14:11;;;;;;;;;;;;;;;31.97;39.28;99522.63;5068152;28;20062;-82
2022/06/14 09:16:48;;;;;;;;;;;;;;;31.62;37.70;99528.09;5068096;28;19916;-82
2022/06/14 09:19:34;;;;;;;4.53;2.03;;;;;;;31.69;40.18;99526.44;5068102;28;19920;-82
2022/06/14 09:22:08;;;;;;;3.55;2.20;;;;;;;31.79;38.42;99518.09;5067512;28;20040;-82
2022/06/14 09:24:53;;;;;;;3.60;2.58;;;;;;;31.90;38.22;99523.28;5068041;28;20495;-82
2022/06/14 09:27:35;;;;;;;3.22;1.80;;;;;;;32.09;36.21;99515.84;5067777;28;20033;-83
2022/06/14 09:30:20;;;;;;;3.00;2.03;;;;;;;32.40;39.61;99513.38;5067221;28;20048;-82
2022/06/14 09:33:10;;;;;;;;;;;;;;;32.10;37.28;99515.72;5068483;28;20033;-82
2022/06/14 09:35:41;;;;;;;2.75;2.08;;;;;;;32.12;38.10;99516.38;5067668;28;19923;-82
2022/06/14 09:38:28;;;;;;;5.25;2.58;;;;;;;31.99;42.61;99509.66;5067610;28;20032;-82
2022/06/14 09:41:07;;;;;;;2.97;1.95;;;;;;;32.61;38.28;99515.63;5068242;28;20033;-82
2022/06/14 09:43:48;;;;;;;2.97;1.88;;;;;;;32.47;39.48;99508.06;5067241;28;20028;-83
2022/06/14 09:46:42;;;;;;;3.35;2.10;;;;;;;32.22;41.41;99508.03;5068021;28;20028;-82
2022/06/14 09:49:37;;;;;;;3.17;2.10;;;;;;;32.28;35.77;99484.69;5067663;28;20028;-83
2022/06/14 09:52:31;;;;;;;3.13;2.08;;;;;;;32.11;41.03;99500.19;5066631;28;20090;-83
2022/06/14 09:55:09;;;;;;;1.97;1.50;;;;;;;31.76;37.22;99505.69;5067739;28;20028;-82
2022/06/14 09:57:53;;;;;;;4.82;2.60;;;;;;;32.08;39.91;99489.56;5066727;28;20035;-82
2022/06/14 10:00:31;;;;;;;3.17;2.08;;;;;;;32.08;37.66;99486.84;5067332;28;20043;-82
2022/06/14 10:03:27;;;;;;;2.60;1.92;;;;;;;31.98;36.91;99489.72;5066939;28;20513;-84
2022/06/14 10:06:01;;;;;;;3.40;2.35;;;;;;;32.26;39.59;99475.84;5066972;28;20032;-82
2022/06/14 10:08:28;;;;;;;3.15;1.35;;;;;;;32.78;37.10;99480.13;5067087;28;20032;-83
2022/06/14 10:11:15;;;;;;;3.38;1.75;;;;;;;32.68;35.58;99482.19;5066046;28;20131;-83
2022/06/14 10:13:49;;;;;;;3.33;1.73;;;;;;;32.56;36.17;99466.13;5049227;28;20104;-83
2022/06/14 10:16:43;;;;;;;2.55;1.45;;;;;;;32.91;37.34;99465.97;5048181;28;20166;-83
2022/06/14 10:19:38;;;;;;;3.03;2.03;;;;;;;32.80;38.20;99465.28;5066280;28;20115;-84
2022/06/14 10:22:18;;;;;;;2.88;1.83;;;;;;;32.72;36.30;99468.03;5067169;28;20789;-83
2022/06/14 10:25:00;;;;;;;2.45;1.88;;;;;;;32.88;34.35;99439.84;5066655;28;20115;-84
2022/06/14 10:28:12;;;;;;;2.92;1.98;;;;;;;32.91;37.07;99461.34;5066565;28;20054;-83
2022/06/14 10:30:46;;;;;;;2.28;1.80;;;;;;;32.73;34.38;99452.50;5046992;28;20053;-85
2022/06/14 10:33:28;;;;;;;2.97;1.60;;;;;;;32.13;37.47;99451.75;5046309;28;20718;-84
2022/06/14 10:36:18;;;;;;;3.33;2.40;;;;;;;32.36;37.86;99427.41;5046721;28;20056;-83
2022/06/14 10:38:49;;;;;;;3.25;2.10;;;;;;;32.98;37.55;99447.84;5046831;28;20041;-83
2022/06/14 10:41:50;;;;;;;3.38;2.13;;;;;;;32.64;35.13;99432.50;5046780;28;20036;-83
2022/06/14 10:44:33;;;;;;;2.08;1.52;;;;;;;32.68;38.18;99417.53;5046828;28;20445;-82
2022/06/14 10:47:20;;;;;;;3.30;1.95;;;;;;;33.32;38.12;99436.69;5047149;28;20090;-83
2022/06/14 10:50:15;;;;;;;4.18;2.08;;;;;;;32.91;35.86;99444.97;5046942;28;20059;-83
2022/06/14 10:53:03;;;;;;;5.10;2.13;;;;;;;32.73;36.33;99439.69;5041358;28;20088;-83
2022/06/14 10:55:46;;;;;;;2.47;1.98;;;;;;;33.15;38.12;99452.25;5046904;28;20031;-83
2022/06/14 10:58:23;;;;;;;2.55;1.52;;;;;;;33.39;33.29;99433.25;5046779;28;20036;-83
2022/06/14 11:00:56;;;;;;;2.80;1.90;;;;;;;33.44;37.32;99415.25;5046648;28;20048;-83
2022/06/14 11:03:54;;;;;;;4.20;2.55;;;;;;;33.45;33.89;99430.66;5046809;28;20116;-83
2022/06/14 11:06:31;;;;;;;2.47;1.60;;;;;;;33.34;33.40;99423.69;5046573;28;20503;-83
2022/06/14 11:09:22;;;;;;;2.67;1.45;;;;;;;32.49;35.93;99435.94;5046813;28;20033;-81
2022/06/14 11:12:09;;;;;;;8.60;2.83;;;;;;;31.07;38.52;99447.59;5046372;28;20033;-84
2022/06/14 11:14:51;;;;;;;2.10;1.48;;;;;;;30.31;38.42;99413.66;5046582;28;20083;-82
2022/06/14 11:17:42;;;;;;;2.72;1.52;;;;;;;30.67;38.88;99441.66;5046608;28;20115;-82
2022/06/14 11:20:35;;;;;;;3.10;1.77;;;;;;;31.09;38.29;99445.53;5046863;28;20028;-82
2022/06/14 11:23:07;;;;;;;2.33;1.73;;;;;;;31.54;37.93;99452.63;5046623;28;20017;-83
2022/06/14 11:26:08;;;;;;;2.85;1.65;;;;;;;31.82;38.12;99446.03;5046423;28;20713;-81
2022/06/14 11:29:11;;;;;;;1.90;1.35;;;;;;;31.65;35.91;99440.53;5050304;28;20033;-83
2022/06/14 11:31:49;;;;;;;2.70;1.50;;;;;;;31.76;35.28;99420.28;5050396;28;20041;-83
2022/06/14 11:34:24;;;;;;;2.60;1.88;;;;;;;32.14;37.22;99448.03;5032175;28;20287;-82
2022/06/14 11:37:01;;;;;;;3.03;1.30;;;;;;;31.99;33.87;99463.31;5054177;28;20028;-81
2022/06/14 11:39:38;;;;;;;1.63;1.30;;;;;;;31.94;34.36;99480.16;5069882;28;20040;-83
2022/06/14 11:42:09;;;;;;;1.10;0.65;;;;;;;30.71;35.88;99464.00;5069938;28;20029;-82
2022/06/14 11:45:03;;;;;;;3.17;1.30;;;;;;;29.71;40.34;99503.91;5070522;28;20036;-82
2022/06/14 11:47:39;;;;;;;2.10;1.65;;;;;;;28.65;42.13;99485.03;5050236;28;20043;-82
2022/06/14 11:50:19;;;;;;;1.40;1.10;;;;;;;27.89;43.85;99497.34;5050020;28;20086;-83
2022/06/14 11:53:09;;;;;;;4.03;1.55;;;;;;;27.13;45.11;99512.09;5049626;28;20040;-83
2022/06/14 11:55:43;;;;;;;1.75;1.30;;;;;;;27.12;44.72;99514.94;5067067;28;20072;-83
2022/06/14 11:58:12;;;;;;;1.58;1.20;;;;;;;27.02;43.90;99541.09;5069937;28;20599;-82
2022/06/14 12:00:47;;;;;;;1.80;1.10;;;;;;;26.74;41.65;99536.22;5069428;28;20028;-83
2022/06/14 12:03:49;;;;;;;1.70;1.35;;;;;;;26.59;43.13;99546.44;5068906;28;20036;-83
2022/06/14 12:06:33;;;;;;;1.33;0.82;;;;;;;26.57;42.40;99540.31;5069702;28;20043;-83
2022/06/14 12:09:41;;;;;;;1.45;1.02;;;;;;;26.63;41.50;99528.09;5069422;28;20086;-83
2022/06/14 12:12:29;;;;;;;1.52;0.98;;;;;;;26.58;41.42;99533.91;5068773;28;20036;-83
2022/06/14 12:15:02;;;;;;;1.23;0.80;;;;;;;26.86;39.75;99539.69;5069726;28;20426;-83
2022/06/14 12:17:52;;;;;;;2.42;1.08;;;;;;;27.02;41.45;99522.16;5068827;28;20028;-82
2022/06/14 12:20:20;;;;;;;3.83;1.77;;;;;;;27.02;43.04;99505.91;5068629;28;20133;-82
2022/06/14 12:23:14;;;;;;;1.60;1.25;;;;;;;26.89;40.75;99476.34;5069366;28;20116;-83
2022/06/14 12:29:12;;;;;;;1.98;1.30;;;;;;;27.78;41.94;99505.59;5069727;28;20182;-81
2022/06/14 12:31:49;;;;;;;3.83;1.80;;;;;;;27.89;39.59;99489.19;5007158;28;20041;-82
2022/06/14 12:34:21;;;;;;;2.28;1.63;;;;;;;28.25;40.15;99513.97;5007001;28;20140;-83